Albolote, Spain
Current Conditions -  °F | °C
As of 8:00 PM on Saturday 20 Dec 2014 (Local Time) from LEGR Reporting Station
Clear Clear  
Wind Chill: 45°   Ceiling: Unl
Heat Index: 45°   Visibility: 6mi
Dew Point: 41°   Wind: 1mph
Humidity: 87%   Direction: NA
Pressure: 30.42"   Gusts: NA
Location:  37.23°N, 3.66°W
Report Text: LEGR 201900Z VRB01KT CAVOK 07/05 Q1030
Loading
Personal Weather Stations






























Interactive Weather Map New forecast layout! Learn more

10-Day Weather Forecast

Advertisements
Track Severe Weather on mobile